sensor_id;sensor_type;location;lat;lon;timestamp;pressure;altitude;pressure_sealevel;temperature;humidity
81641;BME280;71053;50.722;-1.944;2023-08-17T00:02:19;101500.00;;;17.72;86.47
81641;BME280;71053;50.722;-1.944;2023-08-17T00:04:44;101497.81;;;17.70;86.61
81641;BME280;71053;50.722;-1.944;2023-08-17T00:07:09;101496.31;;;17.67;86.72
81641;BME280;71053;50.722;-1.944;2023-08-17T00:09:34;101492.15;;;17.73;87.98
81641;BME280;71053;50.722;-1.944;2023-08-17T00:11:59;101491.32;;;17.67;86.99
81641;BME280;71053;50.722;-1.944;2023-08-17T00:14:25;101493.90;;;17.60;86.46
81641;BME280;71053;50.722;-1.944;2023-08-17T00:16:51;101494.59;;;17.42;85.84
81641;BME280;71053;50.722;-1.944;2023-08-17T00:19:16;101494.39;;;17.41;85.12
81641;BME280;71053;50.722;-1.944;2023-08-17T00:21:41;101494.26;;;17.42;84.32
81641;BME280;71053;50.722;-1.944;2023-08-17T00:24:07;101501.97;;;17.33;84.13
81641;BME280;71053;50.722;-1.944;2023-08-17T00:26:32;101499.82;;;17.44;83.04
81641;BME280;71053;50.722;-1.944;2023-08-17T00:28:57;101496.61;;;17.44;82.40
81641;BME280;71053;50.722;-1.944;2023-08-17T00:31:22;101493.45;;;17.32;81.89
81641;BME280;71053;50.722;-1.944;2023-08-17T00:33:47;101492.25;;;17.30;81.56
81641;BME280;71053;50.722;-1.944;2023-08-17T00:36:13;101492.65;;;17.32;81.70
81641;BME280;71053;50.722;-1.944;2023-08-17T00:38:38;101491.96;;;17.24;80.71
81641;BME280;71053;50.722;-1.944;2023-08-17T00:41:03;101492.82;;;17.31;80.90
81641;BME280;71053;50.722;-1.944;2023-08-17T00:43:28;101493.71;;;17.28;80.66
81641;BME280;71053;50.722;-1.944;2023-08-17T00:45:54;101493.38;;;17.15;81.05
81641;BME280;71053;50.722;-1.944;2023-08-17T00:48:19;101490.48;;;17.25;80.62
81641;BME280;71053;50.722;-1.944;2023-08-17T00:50:47;101484.19;;;17.36;80.04
81641;BME280;71053;50.722;-1.944;2023-08-17T00:53:10;101482.99;;;17.41;79.81
81641;BME280;71053;50.722;-1.944;2023-08-17T00:55:35;101482.93;;;17.39;80.20
81641;BME280;71053;50.722;-1.944;2023-08-17T00:58:00;101486.50;;;17.40;80.06
81641;BME280;71053;50.722;-1.944;2023-08-17T01:00:26;101486.52;;;17.39;80.15
81641;BME280;71053;50.722;-1.944;2023-08-17T01:02:51;101485.93;;;17.45;81.45
81641;BME280;71053;50.722;-1.944;2023-08-17T01:05:16;101486.89;;;17.40;80.15
81641;BME280;71053;50.722;-1.944;2023-08-17T01:07:41;101488.93;;;17.43;79.95
81641;BME280;71053;50.722;-1.944;2023-08-17T01:10:08;101491.30;;;17.45;80.17
81641;BME280;71053;50.722;-1.944;2023-08-17T01:12:35;101494.79;;;17.36;80.21
81641;BME280;71053;50.722;-1.944;2023-08-17T01:15:04;101497.36;;;17.35;79.83
81641;BME280;71053;50.722;-1.944;2023-08-17T01:17:26;101499.78;;;17.31;80.39
81641;BME280;71053;50.722;-1.944;2023-08-17T01:19:49;101504.70;;;17.27;80.25
81641;BME280;71053;50.722;-1.944;2023-08-17T01:22:15;101504.92;;;17.34;79.99
81641;BME280;71053;50.722;-1.944;2023-08-17T01:24:39;101505.98;;;17.37;80.82
81641;BME280;71053;50.722;-1.944;2023-08-17T01:27:04;101500.15;;;17.20;81.31
81641;BME280;71053;50.722;-1.944;2023-08-17T01:29:29;101497.06;;;17.11;81.77
81641;BME280;71053;50.722;-1.944;2023-08-17T01:31:59;101493.18;;;17.16;81.68
81641;BME280;71053;50.722;-1.944;2023-08-17T01:34:22;101492.39;;;17.18;81.54
81641;BME280;71053;50.722;-1.944;2023-08-17T01:36:50;101489.73;;;17.19;81.66
81641;BME280;71053;50.722;-1.944;2023-08-17T01:39:11;101483.57;;;17.23;81.87
81641;BME280;71053;50.722;-1.944;2023-08-17T01:41:36;101479.28;;;17.23;82.30
81641;BME280;71053;50.722;-1.944;2023-08-17T01:44:01;101477.87;;;17.07;83.18
81641;BME280;71053;50.722;-1.944;2023-08-17T01:46:30;101481.73;;;16.95;84.25
81641;BME280;71053;50.722;-1.944;2023-08-17T01:48:52;101480.21;;;16.89;84.20
81641;BME280;71053;50.722;-1.944;2023-08-17T01:51:18;101485.95;;;16.92;84.62
81641;BME280;71053;50.722;-1.944;2023-08-17T01:53:43;101486.59;;;16.83;84.83
81641;BME280;71053;50.722;-1.944;2023-08-17T01:56:09;101483.88;;;16.86;84.63
81641;BME280;71053;50.722;-1.944;2023-08-17T01:58:34;101488.07;;;16.86;84.95
81641;BME280;71053;50.722;-1.944;2023-08-17T02:01:01;101491.27;;;16.79;85.46
81641;BME280;71053;50.722;-1.944;2023-08-17T02:03:26;101495.16;;;16.85;85.09
81641;BME280;71053;50.722;-1.944;2023-08-17T02:05:51;101491.81;;;16.81;85.66
81641;BME280;71053;50.722;-1.944;2023-08-17T02:08:16;101490.01;;;16.78;85.31
81641;BME280;71053;50.722;-1.944;2023-08-17T02:10:42;101489.76;;;16.74;86.34
81641;BME280;71053;50.722;-1.944;2023-08-17T02:13:07;101488.40;;;16.80;85.69
81641;BME280;71053;50.722;-1.944;2023-08-17T02:15:32;101485.75;;;16.72;86.45
81641;BME280;71053;50.722;-1.944;2023-08-17T02:18:01;101484.47;;;16.71;86.59
81641;BME280;71053;50.722;-1.944;2023-08-17T02:20:23;101483.65;;;16.88;87.01
81641;BME280;71053;50.722;-1.944;2023-08-17T02:22:48;101476.45;;;16.78;87.03
81641;BME280;71053;50.722;-1.944;2023-08-17T02:25:14;101473.15;;;16.82;85.70
81641;BME280;71053;50.722;-1.944;2023-08-17T02:27:39;101469.38;;;16.73;85.77
81641;BME280;71053;50.722;-1.944;2023-08-17T02:30:06;101467.96;;;16.69;86.11
81641;BME280;71053;50.722;-1.944;2023-08-17T02:32:31;101466.44;;;16.74;86.41
81641;BME280;71053;50.722;-1.944;2023-08-17T02:34:57;101467.32;;;16.67;86.54
81641;BME280;71053;50.722;-1.944;2023-08-17T02:37:22;101465.06;;;16.68;85.98
81641;BME280;71053;50.722;-1.944;2023-08-17T02:39:47;101455.42;;;16.57;86.63
81641;BME280;71053;50.722;-1.944;2023-08-17T02:42:12;101457.87;;;16.68;87.10
81641;BME280;71053;50.722;-1.944;2023-08-17T02:44:38;101456.54;;;16.69;85.89
81641;BME280;71053;50.722;-1.944;2023-08-17T02:47:04;101455.62;;;16.59;85.71
81641;BME280;71053;50.722;-1.944;2023-08-17T02:49:29;101453.18;;;16.54;85.83
81641;BME280;71053;50.722;-1.944;2023-08-17T02:51:54;101452.78;;;16.47;85.56
81641;BME280;71053;50.722;-1.944;2023-08-17T02:54:20;101457.37;;;16.54;86.49
81641;BME280;71053;50.722;-1.944;2023-08-17T02:56:45;101451.91;;;16.51;85.62
81641;BME280;71053;50.722;-1.944;2023-08-17T02:59:11;101450.59;;;16.51;85.05
81641;BME280;71053;50.722;-1.944;2023-08-17T03:01:37;101452.35;;;16.42;85.78
81641;BME280;71053;50.722;-1.944;2023-08-17T03:04:03;101451.41;;;16.33;86.05
81641;BME280;71053;50.722;-1.944;2023-08-17T03:06:28;101451.65;;;16.38;86.11
81641;BME280;71053;50.722;-1.944;2023-08-17T03:08:53;101451.33;;;16.51;85.83
81641;BME280;71053;50.722;-1.944;2023-08-17T03:11:20;101447.66;;;16.40;85.72
81641;BME280;71053;50.722;-1.944;2023-08-17T03:13:44;101445.74;;;16.34;85.77
81641;BME280;71053;50.722;-1.944;2023-08-17T03:16:10;101447.65;;;16.18;86.16
81641;BME280;71053;50.722;-1.944;2023-08-17T03:18:35;101443.33;;;16.21;86.60
81641;BME280;71053;50.722;-1.944;2023-08-17T03:21:01;101436.44;;;16.28;87.03
81641;BME280;71053;50.722;-1.944;2023-08-17T03:23:26;101427.98;;;16.27;86.50
81641;BME280;71053;50.722;-1.944;2023-08-17T03:25:52;101433.21;;;16.25;85.57
81641;BME280;71053;50.722;-1.944;2023-08-17T03:28:17;101438.07;;;16.11;86.45
81641;BME280;71053;50.722;-1.944;2023-08-17T03:30:42;101434.33;;;16.05;86.46
81641;BME280;71053;50.722;-1.944;2023-08-17T03:33:09;101430.80;;;16.16;86.46
81641;BME280;71053;50.722;-1.944;2023-08-17T03:35:33;101429.59;;;16.14;85.65
81641;BME280;71053;50.722;-1.944;2023-08-17T03:37:59;101429.03;;;16.16;85.91
81641;BME280;71053;50.722;-1.944;2023-08-17T03:40:27;101430.47;;;16.22;85.65
81641;BME280;71053;50.722;-1.944;2023-08-17T03:42:50;101426.20;;;16.20;87.38
81641;BME280;71053;50.722;-1.944;2023-08-17T03:45:15;101425.04;;;16.23;86.13
81641;BME280;71053;50.722;-1.944;2023-08-17T03:47:40;101421.42;;;16.09;86.16
81641;BME280;71053;50.722;-1.944;2023-08-17T03:50:07;101420.31;;;16.03;86.60
81641;BME280;71053;50.722;-1.944;2023-08-17T03:52:31;101421.43;;;16.01;87.19
81641;BME280;71053;50.722;-1.944;2023-08-17T03:54:57;101422.84;;;15.99;86.58
81641;BME280;71053;50.722;-1.944;2023-08-17T03:57:22;101425.58;;;15.92;87.26
81641;BME280;71053;50.722;-1.944;2023-08-17T03:59:48;101425.98;;;15.84;87.04
81641;BME280;71053;50.722;-1.944;2023-08-17T04:02:14;101424.96;;;15.84;87.46
81641;BME280;71053;50.722;-1.944;2023-08-17T04:04:39;101427.63;;;15.91;88.71
81641;BME280;71053;50.722;-1.944;2023-08-17T04:07:04;101431.39;;;15.95;86.93
81641;BME280;71053;50.722;-1.944;2023-08-17T04:09:30;101428.14;;;15.87;88.09
81641;BME280;71053;50.722;-1.944;2023-08-17T04:11:55;101427.04;;;15.84;89.20
81641;BME280;71053;50.722;-1.944;2023-08-17T04:14:21;101422.85;;;15.90;88.05
81641;BME280;71053;50.722;-1.944;2023-08-17T04:16:46;101419.56;;;15.81;87.56
81641;BME280;71053;50.722;-1.944;2023-08-17T04:19:12;101417.71;;;15.88;87.67
81641;BME280;71053;50.722;-1.944;2023-08-17T04:21:37;101415.79;;;15.89;86.84
81641;BME280;71053;50.722;-1.944;2023-08-17T04:24:04;101415.45;;;15.87;88.11
81641;BME280;71053;50.722;-1.944;2023-08-17T04:26:29;101416.51;;;15.92;87.71
81641;BME280;71053;50.722;-1.944;2023-08-17T04:28:54;101417.27;;;15.82;87.69
81641;BME280;71053;50.722;-1.944;2023-08-17T04:31:20;101420.79;;;15.79;89.24
81641;BME280;71053;50.722;-1.944;2023-08-17T04:33:45;101422.91;;;16.06;88.21
81641;BME280;71053;50.722;-1.944;2023-08-17T04:36:11;101426.57;;;16.03;87.23
81641;BME280;71053;50.722;-1.944;2023-08-17T04:38:37;101427.15;;;16.18;89.33
81641;BME280;71053;50.722;-1.944;2023-08-17T04:41:02;101428.65;;;16.04;87.33
81641;BME280;71053;50.722;-1.944;2023-08-17T04:43:28;101429.15;;;16.06;87.06
81641;BME280;71053;50.722;-1.944;2023-08-17T04:45:53;101430.75;;;16.26;87.17
81641;BME280;71053;50.722;-1.944;2023-08-17T04:48:18;101426.52;;;16.10;87.99
81641;BME280;71053;50.722;-1.944;2023-08-17T04:50:44;101430.59;;;15.95;88.04
81641;BME280;71053;50.722;-1.944;2023-08-17T04:53:09;101431.80;;;15.92;88.77
81641;BME280;71053;50.722;-1.944;2023-08-17T04:55:35;101428.65;;;15.99;88.25
81641;BME280;71053;50.722;-1.944;2023-08-17T04:58:00;101425.03;;;16.02;88.54
81641;BME280;71053;50.722;-1.944;2023-08-17T05:00:25;101420.82;;;16.00;88.57
81641;BME280;71053;50.722;-1.944;2023-08-17T05:02:51;101419.40;;;15.85;89.06
81641;BME280;71053;50.722;-1.944;2023-08-17T05:05:17;101419.56;;;16.13;90.54
81641;BME280;71053;50.722;-1.944;2023-08-17T05:07:42;101414.87;;;16.19;89.16
81641;BME280;71053;50.722;-1.944;2023-08-17T05:10:08;101411.28;;;15.85;89.47
81641;BME280;71053;50.722;-1.944;2023-08-17T05:12:33;101413.35;;;15.97;89.78
81641;BME280;71053;50.722;-1.944;2023-08-17T05:14:59;101412.71;;;15.92;89.68
81641;BME280;71053;50.722;-1.944;2023-08-17T05:17:24;101411.77;;;15.76;89.91
81641;BME280;71053;50.722;-1.944;2023-08-17T05:19:50;101411.71;;;15.98;90.68
81641;BME280;71053;50.722;-1.944;2023-08-17T05:22:16;101408.14;;;15.89;89.87
81641;BME280;71053;50.722;-1.944;2023-08-17T05:24:41;101408.07;;;15.93;89.73
81641;BME280;71053;50.722;-1.944;2023-08-17T05:27:06;101410.68;;;15.80;91.21
81641;BME280;71053;50.722;-1.944;2023-08-17T05:29:32;101407.53;;;15.84;89.99
81641;BME280;71053;50.722;-1.944;2023-08-17T05:31:58;101406.97;;;15.75;90.47
81641;BME280;71053;50.722;-1.944;2023-08-17T05:34:24;101409.36;;;15.63;92.05
81641;BME280;71053;50.722;-1.944;2023-08-17T05:36:50;101411.46;;;15.64;92.12
81641;BME280;71053;50.722;-1.944;2023-08-17T05:39:15;101411.38;;;15.72;91.47
81641;BME280;71053;50.722;-1.944;2023-08-17T05:41:40;101414.63;;;15.66;92.15
81641;BME280;71053;50.722;-1.944;2023-08-17T05:44:06;101413.62;;;15.70;92.14
81641;BME280;71053;50.722;-1.944;2023-08-17T05:46:32;101416.54;;;15.93;91.02
81641;BME280;71053;50.722;-1.944;2023-08-17T05:48:57;101418.99;;;15.86;91.71
81641;BME280;71053;50.722;-1.944;2023-08-17T05:51:23;101417.29;;;15.90;90.96
81641;BME280;71053;50.722;-1.944;2023-08-17T05:53:48;101416.15;;;15.98;91.06
81641;BME280;71053;50.722;-1.944;2023-08-17T05:56:14;101411.32;;;16.07;91.00
81641;BME280;71053;50.722;-1.944;2023-08-17T05:58:40;101410.61;;;15.96;91.33
81641;BME280;71053;50.722;-1.944;2023-08-17T06:01:06;101409.21;;;16.07;92.37
81641;BME280;71053;50.722;-1.944;2023-08-17T06:03:31;101407.47;;;16.00;91.65
81641;BME280;71053;50.722;-1.944;2023-08-17T06:05:56;101401.38;;;16.17;91.12
81641;BME280;71053;50.722;-1.944;2023-08-17T06:08:22;101402.00;;;16.12;91.71
81641;BME280;71053;50.722;-1.944;2023-08-17T06:10:47;101404.27;;;16.23;93.66
81641;BME280;71053;50.722;-1.944;2023-08-17T06:13:13;101401.09;;;16.24;91.07
81641;BME280;71053;50.722;-1.944;2023-08-17T06:15:39;101402.45;;;16.44;90.90
81641;BME280;71053;50.722;-1.944;2023-08-17T06:18:04;101401.18;;;16.48;90.45
81641;BME280;71053;50.722;-1.944;2023-08-17T06:20:29;101391.98;;;16.55;92.26
81641;BME280;71053;50.722;-1.944;2023-08-17T06:22:54;101393.16;;;16.72;89.99
81641;BME280;71053;50.722;-1.944;2023-08-17T06:25:20;101389.78;;;16.61;90.22
81641;BME280;71053;50.722;-1.944;2023-08-17T06:27:49;101389.86;;;16.59;90.57
81641;BME280;71053;50.722;-1.944;2023-08-17T06:30:12;101389.59;;;16.58;90.46
81641;BME280;71053;50.722;-1.944;2023-08-17T06:32:36;101389.44;;;16.67;90.93
81641;BME280;71053;50.722;-1.944;2023-08-17T06:35:01;101389.69;;;16.76;90.61
81641;BME280;71053;50.722;-1.944;2023-08-17T06:37:26;101389.04;;;16.92;89.86
81641;BME280;71053;50.722;-1.944;2023-08-17T06:39:52;101393.41;;;17.03;89.52
81641;BME280;71053;50.722;-1.944;2023-08-17T06:42:18;101393.05;;;17.02;89.74
81641;BME280;71053;50.722;-1.944;2023-08-17T06:44:43;101394.77;;;17.08;89.69
81641;BME280;71053;50.722;-1.944;2023-08-17T06:47:09;101398.26;;;17.02;90.41
81641;BME280;71053;50.722;-1.944;2023-08-17T06:49:35;101393.87;;;17.15;89.90
81641;BME280;71053;50.722;-1.944;2023-08-17T06:52:00;101397.38;;;17.13;89.74
81641;BME280;71053;50.722;-1.944;2023-08-17T06:54:25;101397.22;;;17.25;89.83
81641;BME280;71053;50.722;-1.944;2023-08-17T06:56:50;101394.67;;;17.46;88.82
81641;BME280;71053;50.722;-1.944;2023-08-17T06:59:16;101394.20;;;17.45;89.17
81641;BME280;71053;50.722;-1.944;2023-08-17T07:01:42;101393.60;;;17.55;88.61
81641;BME280;71053;50.722;-1.944;2023-08-17T07:04:07;101396.30;;;17.53;89.22
81641;BME280;71053;50.722;-1.944;2023-08-17T07:06:32;101390.92;;;17.68;88.74
81641;BME280;71053;50.722;-1.944;2023-08-17T07:08:58;101397.32;;;17.66;88.97
81641;BME280;71053;50.722;-1.944;2023-08-17T07:11:24;101399.93;;;17.86;88.21
81641;BME280;71053;50.722;-1.944;2023-08-17T07:13:49;101396.19;;;17.82;88.31
81641;BME280;71053;50.722;-1.944;2023-08-17T07:16:14;101401.85;;;17.98;87.84
81641;BME280;71053;50.722;-1.944;2023-08-17T07:18:40;101399.65;;;18.01;87.54
81641;BME280;71053;50.722;-1.944;2023-08-17T07:21:05;101397.42;;;17.98;88.23
81641;BME280;71053;50.722;-1.944;2023-08-17T07:23:30;101401.76;;;18.03;88.15
81641;BME280;71053;50.722;-1.944;2023-08-17T07:25:56;101402.43;;;18.05;87.84
81641;BME280;71053;50.722;-1.944;2023-08-17T07:28:21;101400.28;;;18.12;87.37
81641;BME280;71053;50.722;-1.944;2023-08-17T07:30:47;101398.91;;;18.32;86.97
81641;BME280;71053;50.722;-1.944;2023-08-17T07:33:12;101401.98;;;18.51;85.86
81641;BME280;71053;50.722;-1.944;2023-08-17T07:35:38;101403.15;;;18.51;86.24
81641;BME280;71053;50.722;-1.944;2023-08-17T07:38:04;101410.53;;;18.29;86.50
81641;BME280;71053;50.722;-1.944;2023-08-17T07:40:29;101409.44;;;18.37;86.69
81641;BME280;71053;50.722;-1.944;2023-08-17T07:42:54;101404.79;;;18.50;85.99
81641;BME280;71053;50.722;-1.944;2023-08-17T07:45:20;101402.40;;;18.65;86.10
81641;BME280;71053;50.722;-1.944;2023-08-17T07:47:45;101410.60;;;18.63;85.70
81641;BME280;71053;50.722;-1.944;2023-08-17T07:50:12;101415.54;;;18.70;85.15
81641;BME280;71053;50.722;-1.944;2023-08-17T07:52:37;101416.10;;;18.65;85.37
81641;BME280;71053;50.722;-1.944;2023-08-17T07:55:02;101415.64;;;18.75;86.01
81641;BME280;71053;50.722;-1.944;2023-08-17T07:57:28;101409.54;;;18.84;84.88
81641;BME280;71053;50.722;-1.944;2023-08-17T07:59:53;101401.76;;;18.90;84.59
81641;BME280;71053;50.722;-1.944;2023-08-17T08:02:18;101401.41;;;19.01;84.61
81641;BME280;71053;50.722;-1.944;2023-08-17T08:04:44;101399.24;;;19.04;84.65
81641;BME280;71053;50.722;-1.944;2023-08-17T08:07:10;101403.83;;;19.15;84.15
81641;BME280;71053;50.722;-1.944;2023-08-17T08:09:35;101407.14;;;19.05;84.52
81641;BME280;71053;50.722;-1.944;2023-08-17T08:12:00;101413.32;;;19.05;84.87
81641;BME280;71053;50.722;-1.944;2023-08-17T08:14:25;101417.20;;;19.26;84.05
81641;BME280;71053;50.722;-1.944;2023-08-17T08:16:51;101418.09;;;19.46;83.65
81641;BME280;71053;50.722;-1.944;2023-08-17T08:19:16;101421.76;;;19.58;83.67
81641;BME280;71053;50.722;-1.944;2023-08-17T08:21:42;101420.32;;;19.63;83.49
81641;BME280;71053;50.722;-1.944;2023-08-17T08:24:07;101421.25;;;19.60;83.37
81641;BME280;71053;50.722;-1.944;2023-08-17T08:26:33;101426.25;;;19.51;83.21
81641;BME280;71053;50.722;-1.944;2023-08-17T08:28:58;101421.69;;;19.51;83.71
81641;BME280;71053;50.722;-1.944;2023-08-17T08:31:24;101418.12;;;19.69;83.05
81641;BME280;71053;50.722;-1.944;2023-08-17T08:33:50;101418.81;;;19.85;82.70
81641;BME280;71053;50.722;-1.944;2023-08-17T08:36:15;101413.72;;;19.80;83.26
81641;BME280;71053;50.722;-1.944;2023-08-17T08:38:40;101407.97;;;19.79;82.81
81641;BME280;71053;50.722;-1.944;2023-08-17T08:41:05;101410.62;;;20.00;82.12
81641;BME280;71053;50.722;-1.944;2023-08-17T08:43:31;101408.07;;;20.03;82.10
81641;BME280;71053;50.722;-1.944;2023-08-17T08:45:58;101407.28;;;19.94;83.20
81641;BME280;71053;50.722;-1.944;2023-08-17T08:48:22;101408.47;;;20.12;82.25
81641;BME280;71053;50.722;-1.944;2023-08-17T08:50:47;101404.36;;;20.32;81.75
81641;BME280;71053;50.722;-1.944;2023-08-17T08:53:14;101403.88;;;20.33;81.23
81641;BME280;71053;50.722;-1.944;2023-08-17T08:55:41;101406.06;;;20.40;80.98
81641;BME280;71053;50.722;-1.944;2023-08-17T08:58:04;101406.88;;;20.47;80.45
81641;BME280;71053;50.722;-1.944;2023-08-17T09:00:29;101406.74;;;20.36;81.54
81641;BME280;71053;50.722;-1.944;2023-08-17T09:02:55;101406.28;;;20.33;81.86
81641;BME280;71053;50.722;-1.944;2023-08-17T09:05:21;101405.71;;;20.39;81.76
81641;BME280;71053;50.722;-1.944;2023-08-17T09:07:47;101407.62;;;20.24;82.40
81641;BME280;71053;50.722;-1.944;2023-08-17T09:10:10;101407.98;;;20.33;82.43
81641;BME280;71053;50.722;-1.944;2023-08-17T09:12:36;101411.25;;;20.20;82.37
81641;BME280;71053;50.722;-1.944;2023-08-17T09:15:01;101415.88;;;20.31;82.03
81641;BME280;71053;50.722;-1.944;2023-08-17T09:17:27;101411.24;;;20.13;82.86
81641;BME280;71053;50.722;-1.944;2023-08-17T09:19:52;101418.53;;;20.21;82.74
81641;BME280;71053;50.722;-1.944;2023-08-17T09:22:23;101414.87;;;19.99;83.59
81641;BME280;71053;50.722;-1.944;2023-08-17T09:24:42;101406.89;;;20.17;83.00
81641;BME280;71053;50.722;-1.944;2023-08-17T09:27:12;101409.19;;;20.32;82.58
81641;BME280;71053;50.722;-1.944;2023-08-17T09:29:34;101402.90;;;20.26;82.78
81641;BME280;71053;50.722;-1.944;2023-08-17T09:32:03;101405.06;;;20.24;83.10
81641;BME280;71053;50.722;-1.944;2023-08-17T09:34:24;101408.98;;;20.03;83.59
81641;BME280;71053;50.722;-1.944;2023-08-17T09:36:49;101402.77;;;20.02;83.76
81641;BME280;71053;50.722;-1.944;2023-08-17T09:39:16;101395.08;;;20.00;84.48
81641;BME280;71053;50.722;-1.944;2023-08-17T09:41:41;101388.68;;;20.15;83.99
81641;BME280;71053;50.722;-1.944;2023-08-17T09:44:06;101392.34;;;20.30;83.86
81641;BME280;71053;50.722;-1.944;2023-08-17T09:46:31;101396.88;;;20.46;82.56
81641;BME280;71053;50.722;-1.944;2023-08-17T09:48:57;101401.77;;;20.42;82.99
81641;BME280;71053;50.722;-1.944;2023-08-17T09:51:23;101401.77;;;20.47;82.47
81641;BME280;71053;50.722;-1.944;2023-08-17T09:53:52;101403.01;;;20.40;82.64
81641;BME280;71053;50.722;-1.944;2023-08-17T09:56:12;101398.17;;;20.19;82.91
81641;BME280;71053;50.722;-1.944;2023-08-17T09:58:38;101391.84;;;20.32;82.42
81641;BME280;71053;50.722;-1.944;2023-08-17T10:01:04;101395.36;;;20.34;82.88
81641;BME280;71053;50.722;-1.944;2023-08-17T10:03:29;101401.32;;;20.29;82.54
81641;BME280;71053;50.722;-1.944;2023-08-17T10:05:59;101402.26;;;20.30;82.60
81641;BME280;71053;50.722;-1.944;2023-08-17T10:08:20;101399.52;;;20.28;82.97
81641;BME280;71053;50.722;-1.944;2023-08-17T10:10:45;101398.10;;;20.32;83.46
81641;BME280;71053;50.722;-1.944;2023-08-17T10:13:11;101398.79;;;20.52;82.06
81641;BME280;71053;50.722;-1.944;2023-08-17T10:15:41;101395.74;;;20.26;82.72
81641;BME280;71053;50.722;-1.944;2023-08-17T10:18:08;101394.27;;;20.09;83.30
81641;BME280;71053;50.722;-1.944;2023-08-17T10:20:30;101393.48;;;20.19;82.93
81641;BME280;71053;50.722;-1.944;2023-08-17T10:22:56;101393.35;;;20.18;83.27
81641;BME280;71053;50.722;-1.944;2023-08-17T10:25:17;101398.40;;;20.09;83.08
81641;BME280;71053;50.722;-1.944;2023-08-17T10:27:43;101401.05;;;19.91;84.26
81641;BME280;71053;50.722;-1.944;2023-08-17T10:30:09;101399.65;;;19.86;84.53
81641;BME280;71053;50.722;-1.944;2023-08-17T10:32:34;101396.53;;;20.04;84.08
81641;BME280;71053;50.722;-1.944;2023-08-17T10:35:00;101392.70;;;20.06;84.05
81641;BME280;71053;50.722;-1.944;2023-08-17T10:37:25;101390.63;;;20.08;83.15
81641;BME280;71053;50.722;-1.944;2023-08-17T10:39:50;101392.65;;;20.06;83.41
81641;BME280;71053;50.722;-1.944;2023-08-17T10:44:44;101395.89;;;20.11;83.02
81641;BME280;71053;50.722;-1.944;2023-08-17T10:47:20;101401.10;;;20.19;83.10
81641;BME280;71053;50.722;-1.944;2023-08-17T10:49:32;101399.19;;;20.42;81.94
81641;BME280;71053;50.722;-1.944;2023-08-17T10:52:02;101397.55;;;20.40;82.19
81641;BME280;71053;50.722;-1.944;2023-08-17T10:56:48;101393.02;;;20.13;82.12
81641;BME280;71053;50.722;-1.944;2023-08-17T11:01:40;101398.50;;;20.26;81.13
81641;BME280;71053;50.722;-1.944;2023-08-17T11:04:11;101399.10;;;20.31;80.80
81641;BME280;71053;50.722;-1.944;2023-08-17T11:06:30;101392.45;;;20.36;80.40
81641;BME280;71053;50.722;-1.944;2023-08-17T11:08:56;101393.24;;;20.16;80.74
81641;BME280;71053;50.722;-1.944;2023-08-17T11:11:22;101389.81;;;20.17;80.45
81641;BME280;71053;50.722;-1.944;2023-08-17T11:13:46;101390.53;;;20.34;80.57
81641;BME280;71053;50.722;-1.944;2023-08-17T11:16:13;101390.96;;;20.35;80.48
81641;BME280;71053;50.722;-1.944;2023-08-17T11:18:37;101394.89;;;20.43;80.38
81641;BME280;71053;50.722;-1.944;2023-08-17T11:21:04;101393.08;;;20.48;80.58
81641;BME280;71053;50.722;-1.944;2023-08-17T11:23:29;101389.42;;;20.56;80.38
81641;BME280;71053;50.722;-1.944;2023-08-17T11:25:53;101388.95;;;20.61;79.91
81641;BME280;71053;50.722;-1.944;2023-08-17T11:28:19;101388.80;;;20.50;79.81
81641;BME280;71053;50.722;-1.944;2023-08-17T11:30:44;101387.45;;;20.45;80.38
81641;BME280;71053;50.722;-1.944;2023-08-17T11:33:10;101386.36;;;20.65;79.66
81641;BME280;71053;50.722;-1.944;2023-08-17T11:35:35;101384.74;;;20.69;80.42
81641;BME280;71053;50.722;-1.944;2023-08-17T11:38:00;101383.91;;;20.90;79.40
81641;BME280;71053;50.722;-1.944;2023-08-17T11:40:26;101386.47;;;20.89;79.59
81641;BME280;71053;50.722;-1.944;2023-08-17T11:42:51;101384.47;;;20.70;79.99
81641;BME280;71053;50.722;-1.944;2023-08-17T11:45:16;101380.68;;;20.69;80.09
81641;BME280;71053;50.722;-1.944;2023-08-17T11:47:42;101378.91;;;20.70;80.35
81641;BME280;71053;50.722;-1.944;2023-08-17T11:50:09;101378.98;;;20.65;81.19
81641;BME280;71053;50.722;-1.944;2023-08-17T11:52:32;101380.38;;;20.57;81.03
81641;BME280;71053;50.722;-1.944;2023-08-17T11:54:57;101376.52;;;20.76;80.79
81641;BME280;71053;50.722;-1.944;2023-08-17T11:57:22;101372.50;;;20.76;81.07
81641;BME280;71053;50.722;-1.944;2023-08-17T11:59:48;101376.21;;;20.72;81.11
81641;BME280;71053;50.722;-1.944;2023-08-17T12:02:13;101372.13;;;20.84;80.58
81641;BME280;71053;50.722;-1.944;2023-08-17T12:04:38;101369.31;;;20.74;80.63
81641;BME280;71053;50.722;-1.944;2023-08-17T12:07:04;101370.14;;;20.66;81.17
81641;BME280;71053;50.722;-1.944;2023-08-17T12:09:32;101364.90;;;20.82;80.32
81641;BME280;71053;50.722;-1.944;2023-08-17T12:11:58;101360.60;;;20.78;80.11
81641;BME280;71053;50.722;-1.944;2023-08-17T12:14:20;101359.09;;;20.71;79.95
81641;BME280;71053;50.722;-1.944;2023-08-17T12:16:46;101359.51;;;20.79;79.66
81641;BME280;71053;50.722;-1.944;2023-08-17T12:19:10;101354.87;;;20.83;79.17
81641;BME280;71053;50.722;-1.944;2023-08-17T12:21:34;101353.54;;;20.76;78.60
81641;BME280;71053;50.722;-1.944;2023-08-17T12:24:04;101349.83;;;20.70;77.98
81641;BME280;71053;50.722;-1.944;2023-08-17T12:26:25;101343.65;;;20.86;78.02
81641;BME280;71053;50.722;-1.944;2023-08-17T12:28:50;101338.29;;;20.73;77.94
81641;BME280;71053;50.722;-1.944;2023-08-17T12:31:21;101330.16;;;20.72;77.39
81641;BME280;71053;50.722;-1.944;2023-08-17T12:33:40;101325.51;;;20.80;77.19
81641;BME280;71053;50.722;-1.944;2023-08-17T12:36:05;101322.88;;;20.93;77.48
81641;BME280;71053;50.722;-1.944;2023-08-17T12:38:30;101318.03;;;20.92;76.39